Time;durP1;ratioP1;P1;durP2;ratioP2;P2;SDS_P1;SDS_P2;PMS_P1;PMS_P2;Temp;Humidity;BMP_temperature;BMP_pressure;BME280_temperature;BME280_humidity;BME280_pressure;Samples;Min_cycle;Max_cycle;Signal;HPM_P1;HPM_P2
2024/03/28 00:00:03;;;;;;;1.25;0.73;;;;;;;29.86;24.79;95722.44;7391682;19;20324;-56
2024/03/28 00:02:32;;;;;;;0.40;0.40;;;;;;;30.24;24.51;95719.03;7391538;19;20015;-56
2024/03/28 00:04:58;;;;;;;0.50;0.50;;;;;;;29.93;24.68;95726.06;7389846;19;20017;-56
2024/03/28 00:07:24;;;;;;;0.30;0.30;;;;;;;30.06;25.13;95721.09;7390838;19;20036;-57
2024/03/28 00:09:50;;;;;;;0.35;0.35;;;;;;;29.89;24.78;95709.53;7391608;19;20364;-56
2024/03/28 00:12:16;;;;;;;0.30;0.30;;;;;;;30.39;24.44;95708.31;7393251;19;20683;-56
2024/03/28 00:14:42;;;;;;;0.45;0.45;;;;;;;29.87;25.05;95703.78;7393259;19;20010;-57
2024/03/28 00:17:08;;;;;;;0.30;0.30;;;;;;;29.81;24.78;95700.91;7390661;19;20360;-56
2024/03/28 00:19:34;;;;;;;0.38;0.38;;;;;;;29.94;24.96;95693.78;7391152;19;20029;-56
2024/03/28 00:22:00;;;;;;;0.32;0.32;;;;;;;29.89;24.46;95692.31;7394868;19;20051;-57
2024/03/28 00:24:27;;;;;;;0.43;0.43;;;;;;;29.58;24.62;95693.56;7397410;19;20010;-56
2024/03/28 00:26:53;;;;;;;0.13;0.13;;;;;;;29.60;24.79;95673.50;7402469;19;20474;-56
2024/03/28 00:29:19;;;;;;;0.30;0.30;;;;;;;29.49;24.91;95688.47;7397746;19;20493;-56
2024/03/28 00:31:45;;;;;;;9.50;0.60;;;;;;;29.42;24.91;95681.25;7397962;19;20015;-56
2024/03/28 00:34:11;;;;;;;0.30;0.30;;;;;;;29.43;25.03;95671.25;7397942;19;20003;-56
2024/03/28 00:36:38;;;;;;;0.50;0.30;;;;;;;29.39;24.99;95671.94;7396388;19;20467;-56
2024/03/28 00:39:04;;;;;;;0.30;0.30;;;;;;;29.41;25.10;95677.66;7401890;19;20352;-56
2024/03/28 00:41:30;;;;;;;2.08;0.55;;;;;;;29.43;24.90;95663.38;7398040;19;20010;-56
2024/03/28 00:43:56;;;;;;;0.60;0.60;;;;;;;29.43;24.96;95671.97;7396841;19;20022;-56
2024/03/28 00:46:22;;;;;;;0.40;0.40;;;;;;;29.39;25.24;95666.19;7397427;19;20014;-56
2024/03/28 00:48:48;;;;;;;0.60;0.57;;;;;;;29.41;25.41;95663.34;7399562;19;20018;-56
2024/03/28 00:51:16;;;;;;;2.42;0.30;;;;;;;29.80;25.42;95670.06;7398224;19;20018;-56
2024/03/28 00:53:42;;;;;;;0.40;0.40;;;;;;;29.55;25.34;95671.31;7397707;19;20475;-56
2024/03/28 00:56:08;;;;;;;0.73;0.73;;;;;;;29.29;25.49;95669.00;7397214;19;20011;-56
2024/03/28 00:58:34;;;;;;;1.58;0.73;;;;;;;29.29;25.70;95656.81;7399318;19;20007;-56
2024/03/28 01:01:02;;;;;;;0.40;0.38;;;;;;;29.91;25.17;95637.81;7396476;19;20011;-57
2024/03/28 01:03:29;;;;;;;0.20;0.20;;;;;;;30.26;24.97;95646.53;7396631;19;20011;-56
2024/03/28 01:05:58;;;;;;;0.35;0.32;;;;;;;29.79;25.82;95645.66;7395664;19;20039;-56
2024/03/28 01:08:25;;;;;;;1.00;0.40;;;;;;;29.64;25.67;95633.38;7398747;19;20015;-56
2024/03/28 01:10:51;;;;;;;0.77;0.43;;;;;;;29.56;25.60;95626.88;7396082;19;20090;-56
2024/03/28 01:13:18;;;;;;;0.43;0.43;;;;;;;29.58;26.00;95612.56;7400425;19;20019;-56
2024/03/28 01:15:44;;;;;;;9.93;0.77;;;;;;;29.71;25.92;95605.44;7397125;19;20015;-56
2024/03/28 01:18:11;;;;;;;0.32;0.32;;;;;;;30.02;26.00;95594.84;7398500;19;20019;-56
2024/03/28 01:20:37;;;;;;;0.47;0.47;;;;;;;30.08;25.49;95603.44;7395340;19;20368;-56
2024/03/28 01:23:03;;;;;;;3.10;0.47;;;;;;;30.05;25.54;95599.84;7396051;19;20363;-56
2024/03/28 01:25:30;;;;;;;3.13;1.02;;;;;;;30.16;25.72;95597.72;7395276;19;20090;-56
2024/03/28 01:27:56;;;;;;;0.35;0.35;;;;;;;30.85;25.21;95596.38;7398106;19;20033;-56
2024/03/28 01:30:22;;;;;;;0.55;0.55;;;;;;;30.47;25.57;95590.63;7396234;19;20390;-56
2024/03/28 01:32:49;;;;;;;0.60;0.60;;;;;;;31.22;24.93;95591.34;7393970;19;20017;-56
2024/03/28 01:35:15;;;;;;;0.20;0.20;;;;;;;31.54;24.44;95570.41;7394371;19;20346;-56
2024/03/28 01:37:41;;;;;;;0.65;0.50;;;;;;;31.45;24.58;95580.53;7396108;19;20015;-56
2024/03/28 01:40:09;;;;;;;13.10;1.08;;;;;;;31.38;24.60;95571.88;7395855;19;20019;-56
2024/03/28 01:42:35;;;;;;;0.47;0.47;;;;;;;31.46;24.59;95579.09;7398503;19;20006;-56
2024/03/28 01:45:01;;;;;;;0.70;0.60;;;;;;;31.89;24.34;95569.56;7394166;19;20031;-56
2024/03/28 01:47:28;;;;;;;2.53;0.70;;;;;;;32.25;23.83;95551.38;7396559;19;20094;-56
2024/03/28 01:49:54;;;;;;;1.20;0.65;;;;;;;31.71;24.62;95554.53;7397314;19;20403;-56
2024/03/28 01:52:21;;;;;;;0.68;0.68;;;;;;;31.94;24.19;95550.09;7392244;19;20475;-56
2024/03/28 01:54:48;;;;;;;0.63;0.50;;;;;;;32.39;23.93;95525.38;7395752;19;20011;-56
2024/03/28 01:57:15;;;;;;;7.80;1.35;;;;;;;32.52;23.72;95526.00;7395780;19;20032;-56
2024/03/28 01:59:42;;;;;;;0.30;0.30;;;;;;;32.48;24.02;95523.16;7395611;19;20011;-56
2024/03/28 02:02:08;;;;;;;1.42;0.52;;;;;;;32.34;24.13;95505.94;7395024;19;20343;-56
2024/03/28 02:04:34;;;;;;;0.73;0.40;;;;;;;32.79;23.65;95489.75;7393885;19;20018;-56
2024/03/28 02:07:01;;;;;;;0.35;0.35;;;;;;;32.92;23.29;95493.22;7394166;19;20470;-56
2024/03/28 02:09:28;;;;;;;0.30;0.30;;;;;;;33.07;23.55;95480.81;7397563;19;20122;-56
2024/03/28 02:11:58;;;;;;;0.68;0.68;;;;;;;32.42;23.67;95486.44;7396302;19;20017;-56
2024/03/28 02:14:24;;;;;;;1.70;1.55;;;;;;;32.69;23.76;95476.16;7395070;19;20051;-56
2024/03/28 02:16:50;;;;;;;0.60;0.50;;;;;;;32.52;23.85;95474.16;7394276;19;20471;-56
2024/03/28 02:19:17;;;;;;;2.85;0.65;;;;;;;32.24;24.30;95486.59;7398243;19;20475;-56
2024/03/28 02:21:46;;;;;;;0.75;0.60;;;;;;;32.03;24.26;95468.06;7394168;19;20021;-56
2024/03/28 02:24:13;;;;;;;0.77;0.30;;;;;;;32.07;24.28;95473.78;7393802;19;20033;-56
2024/03/28 02:26:40;;;;;;;1.00;0.47;;;;;;;32.08;24.29;95464.41;7394098;19;20041;-56
2024/03/28 02:29:06;;;;;;;0.47;0.30;;;;;;;32.70;23.96;95463.16;7397287;19;20074;-56
2024/03/28 02:31:32;;;;;;;0.50;0.50;;;;;;;32.66;23.98;95454.56;7394654;19;20090;-56
2024/03/28 02:33:58;;;;;;;2.72;1.42;;;;;;;32.72;24.15;95459.56;7393685;19;20011;-56
2024/03/28 02:36:24;;;;;;;1.63;0.95;;;;;;;32.85;23.92;95458.00;7394115;19;20493;-56
2024/03/28 02:38:50;;;;;;;1.70;1.00;;;;;;;32.69;24.26;95452.38;7396453;19;20021;-56
2024/03/28 02:41:20;;;;;;;2.15;0.95;;;;;;;32.39;24.20;95464.88;7393221;19;20463;-56
2024/03/28 02:43:47;;;;;;;1.77;1.30;;;;;;;31.83;24.63;95457.38;7397504;19;20014;-56
2024/03/28 02:46:13;;;;;;;2.75;1.15;;;;;;;31.61;25.01;95448.16;7391224;19;20019;-56
2024/03/28 02:48:40;;;;;;;3.47;0.98;;;;;;;31.79;24.90;95436.53;7395489;19;20467;-56
2024/03/28 02:51:06;;;;;;;2.45;1.50;;;;;;;31.83;24.92;95437.22;7393237;19;20014;-56
2024/03/28 02:53:32;;;;;;;3.03;0.93;;;;;;;31.67;25.31;95430.84;7393547;19;20359;-56
2024/03/28 02:55:58;;;;;;;0.75;0.35;;;;;;;31.56;25.53;95429.47;7393170;19;20014;-56
2024/03/28 02:58:24;;;;;;;0.75;0.75;;;;;;;31.62;25.42;95426.56;7395545;19;20018;-56
2024/03/28 03:00:50;;;;;;;0.40;0.40;;;;;;;31.92;25.64;95411.97;7393720;19;20013;-56
2024/03/28 03:03:16;;;;;;;0.93;0.68;;;;;;;31.90;25.42;95409.13;7393378;19;20010;-56
2024/03/28 03:05:42;;;;;;;1.85;0.63;;;;;;;31.85;25.52;95404.84;7390467;19;20511;-57
2024/03/28 03:08:11;;;;;;;5.22;1.10;;;;;;;31.93;25.71;95401.88;7394825;19;20034;-57
2024/03/28 03:10:37;;;;;;;0.50;0.50;;;;;;;31.86;25.31;95409.16;7393858;19;20014;-57
2024/03/28 03:13:03;;;;;;;1.70;0.68;;;;;;;31.88;25.89;95406.25;7396023;19;20007;-57
2024/03/28 03:15:29;;;;;;;0.55;0.55;;;;;;;32.03;25.52;95381.69;7392173;19;20038;-56
2024/03/28 03:17:56;;;;;;;2.58;1.05;;;;;;;31.87;25.65;95384.66;7393366;19;20010;-57
2024/03/28 03:20:24;;;;;;;0.95;0.77;;;;;;;31.83;25.77;95381.81;7391288;19;20025;-57
2024/03/28 03:22:53;;;;;;;0.22;0.20;;;;;;;31.92;25.59;95371.69;7391409;19;20022;-57
2024/03/28 03:25:26;;;;;;;1.02;0.98;;;;;;;32.01;25.91;95361.56;7391326;19;20539;-57
2024/03/28 03:36:07;;;;;;;0.35;0.35;;;;;;;30.36;27.45;95368.84;7393237;19;20463;-57
2024/03/28 03:38:33;;;;;;;1.20;0.68;;;;;;;30.08;27.72;95356.66;7391440;19;20011;-56
2024/03/28 03:41:00;;;;;;;0.77;0.77;;;;;;;30.49;27.17;95352.31;7395250;19;20475;-57
2024/03/28 03:43:27;;;;;;;0.98;0.43;;;;;;;30.38;27.19;95348.03;7396191;19;20089;-56
2024/03/28 03:45:53;;;;;;;2.17;0.82;;;;;;;31.20;26.77;95344.13;7391156;19;20011;-57
2024/03/28 03:48:19;;;;;;;0.55;0.20;;;;;;;31.42;26.54;95336.06;7392595;19;20050;-56
2024/03/28 03:50:45;;;;;;;0.30;0.30;;;;;;;31.50;26.38;95334.59;7394527;19;20034;-56
2024/03/28 03:53:11;;;;;;;2.60;0.88;;;;;;;31.41;26.47;95340.41;7391677;19;20023;-57
2024/03/28 03:55:37;;;;;;;0.60;0.60;;;;;;;31.49;26.45;95333.19;7392137;19;20456;-57
2024/03/28 03:58:03;;;;;;;9.48;0.93;;;;;;;31.80;26.48;95326.44;7398130;19;20014;-56
2024/03/28 04:00:30;;;;;;;0.40;0.40;;;;;;;32.20;25.91;95313.88;7398773;19;20484;-56
2024/03/28 04:02:56;;;;;;;0.73;0.40;;;;;;;32.67;25.57;95314.81;7402065;19;20010;-56
2024/03/28 04:05:22;;;;;;;1.38;1.25;;;;;;;32.70;25.42;95304.00;7397192;19;20766;-56
2024/03/28 04:07:48;;;;;;;0.55;0.55;;;;;;;32.25;25.64;95292.22;7398499;19;20014;-56
2024/03/28 04:10:14;;;;;;;4.30;1.55;;;;;;;32.15;25.67;95280.81;7398655;19;20030;-56
2024/03/28 04:12:40;;;;;;;1.65;1.10;;;;;;;30.50;26.78;95290.56;7400848;19;20021;-56
2024/03/28 04:15:07;;;;;;;0.90;0.90;;;;;;;29.74;27.84;95280.66;7398865;19;20097;-56
2024/03/28 04:17:36;;;;;;;0.43;0.43;;;;;;;29.55;28.03;95282.09;7398179;19;20347;-57
2024/03/28 04:20:11;;;;;;;1.10;0.85;;;;;;;29.36;27.84;95283.53;7397996;19;20006;-56
2024/03/28 04:22:37;;;;;;;2.65;0.88;;;;;;;29.32;27.84;95277.06;7397811;19;20007;-57
2024/03/28 04:25:04;;;;;;;1.45;0.93;;;;;;;29.33;28.46;95267.03;7397947;19;20018;-56
2024/03/28 04:27:30;;;;;;;2.38;1.00;;;;;;;29.62;28.06;95265.59;7398827;19;20014;-56
2024/03/28 04:29:56;;;;;;;1.73;1.30;;;;;;;29.88;27.84;95266.31;7397517;19;20021;-56
2024/03/28 04:32:23;;;;;;;0.47;0.30;;;;;;;29.80;27.55;95262.75;7396695;19;20011;-57
2024/03/28 04:34:49;;;;;;;0.80;0.80;;;;;;;29.82;27.87;95266.31;7397508;19;20017;-56
2024/03/28 04:37:15;;;;;;;0.75;0.60;;;;;;;29.80;27.78;95266.31;7399236;19;20018;-56
2024/03/28 04:39:41;;;;;;;0.52;0.50;;;;;;;29.91;27.73;95259.13;7396603;19;20463;-56
2024/03/28 04:42:07;;;;;;;0.60;0.50;;;;;;;29.91;27.76;95259.13;7399327;19;20030;-56
2024/03/28 04:44:33;;;;;;;1.05;0.50;;;;;;;29.89;27.75;95256.25;7397140;19;20026;-56
2024/03/28 04:46:59;;;;;;;1.13;0.63;;;;;;;29.92;27.71;95263.44;7397701;19;20467;-57
2024/03/28 04:49:25;;;;;;;1.33;1.23;;;;;;;29.89;27.92;95267.00;7401961;19;20014;-56
2024/03/28 04:51:51;;;;;;;1.10;0.88;;;;;;;29.68;27.61;95266.31;7398125;19;20011;-57
2024/03/28 04:54:17;;;;;;;0.60;0.60;;;;;;;29.63;28.02;95259.16;7397077;19;20014;-56
2024/03/28 04:56:44;;;;;;;2.17;1.33;;;;;;;29.71;28.24;95259.16;7398148;19;20010;-56
2024/03/28 04:59:10;;;;;;;0.40;0.40;;;;;;;29.56;28.30;95254.84;7401727;19;20030;-56
2024/03/28 05:01:36;;;;;;;0.63;0.63;;;;;;;29.53;28.15;95259.16;7397320;19;20625;-56
2024/03/28 05:04:02;;;;;;;0.32;0.32;;;;;;;29.45;28.42;95261.31;7396694;19;20018;-56
2024/03/28 05:06:28;;;;;;;0.30;0.30;;;;;;;29.41;28.29;95270.63;7396429;19;20014;-56
2024/03/28 05:08:54;;;;;;;0.50;0.50;;;;;;;29.21;28.66;95277.06;7398097;19;20014;-56
2024/03/28 05:11:23;;;;;;;0.65;0.40;;;;;;;29.06;28.72;95272.72;7396224;19;20003;-56
2024/03/28 05:13:49;;;;;;;0.50;0.50;;;;;;;29.16;28.74;95275.63;7395931;19;20022;-56
2024/03/28 05:16:15;;;;;;;0.50;0.50;;;;;;;29.17;28.32;95273.50;7397162;19;20501;-57
2024/03/28 05:18:44;;;;;;;0.57;0.30;;;;;;;29.07;28.61;95270.56;7399216;19;20178;-56
2024/03/28 05:21:11;;;;;;;0.77;0.73;;;;;;;29.03;28.29;95282.03;7397253;19;20467;-56
2024/03/28 05:23:37;;;;;;;0.30;0.30;;;;;;;29.21;28.37;95290.69;7396870;19;20010;-56
2024/03/28 05:26:04;;;;;;;0.28;0.28;;;;;;;29.26;28.79;95300.69;7394778;19;20011;-56
2024/03/28 05:28:30;;;;;;;0.43;0.40;;;;;;;29.05;28.17;95302.81;7398707;19;20347;-56
2024/03/28 05:30:58;;;;;;;0.30;0.30;;;;;;;29.10;28.44;95300.66;7396149;19;20015;-56
2024/03/28 05:33:37;;;;;;;0.30;0.30;;;;;;;29.42;28.14;95314.34;7396478;19;20015;-56
2024/03/28 05:36:04;;;;;;;0.10;0.10;;;;;;;29.16;28.32;95315.03;7396244;19;20010;-56
2024/03/28 05:38:30;;;;;;;0.22;0.22;;;;;;;28.96;28.76;95312.81;7397632;19;20010;-56
2024/03/28 05:40:57;;;;;;;0.43;0.43;;;;;;;28.81;28.43;95325.66;7396251;19;20015;-56
2024/03/28 05:43:23;;;;;;;0.30;0.30;;;;;;;28.69;28.78;95324.88;7399934;19;20010;-56
2024/03/28 05:45:49;;;;;;;0.50;0.50;;;;;;;29.12;28.17;95323.59;7393477;19;20010;-56
2024/03/28 05:48:15;;;;;;;2.92;0.20;;;;;;;29.32;28.36;95320.06;7397678;19;20007;-56
2024/03/28 05:50:41;;;;;;;0.22;0.22;;;;;;;29.32;28.65;95323.66;7400068;19;20332;-56
2024/03/28 05:53:07;;;;;;;0.30;0.30;;;;;;;29.43;28.62;95332.97;7395519;19;20026;-56
2024/03/28 05:55:33;;;;;;;0.10;0.10;;;;;;;29.76;28.42;95323.69;7395801;19;20021;-56
2024/03/28 05:57:59;;;;;;;0.22;0.22;;;;;;;29.37;28.25;95330.13;7396946;19;20422;-56
2024/03/28 06:00:26;;;;;;;0.20;0.20;;;;;;;29.10;28.34;95332.19;7395557;19;20007;-56
2024/03/28 06:02:52;;;;;;;0.25;0.25;;;;;;;28.89;28.27;95336.44;7394419;19;20010;-56
2024/03/28 06:05:19;;;;;;;0.20;0.20;;;;;;;28.53;28.40;95349.13;7394114;19;20011;-56
2024/03/28 06:07:45;;;;;;;0.20;0.20;;;;;;;28.52;28.61;95341.97;7394125;19;20028;-56
2024/03/28 06:10:11;;;;;;;0.20;0.20;;;;;;;28.73;28.79;95359.25;7395339;19;20011;-56
2024/03/28 06:12:37;;;;;;;0.38;0.38;;;;;;;28.76;28.50;95363.59;7397324;19;20345;-56
2024/03/28 06:15:04;;;;;;;0.55;0.55;;;;;;;28.73;28.60;95367.84;7394855;19;20010;-56
2024/03/28 06:17:30;;;;;;;0.95;0.40;;;;;;;28.72;28.57;95386.47;7394739;19;20018;-56
2024/03/28 06:19:56;;;;;;;0.30;0.30;;;;;;;28.53;28.18;95394.94;7394603;19;20014;-56
2024/03/28 06:22:22;;;;;;;1.10;0.60;;;;;;;28.42;28.09;95416.34;7394163;19;20011;-56
2024/03/28 06:24:48;;;;;;;0.40;0.40;;;;;;;27.18;29.35;95423.78;7394134;19;20007;-56
2024/03/28 06:27:14;;;;;;;0.65;0.65;;;;;;;26.56;30.31;95421.53;7394752;19;20021;-56
2024/03/28 06:29:49;;;;;;;0.50;0.50;;;;;;;27.96;28.35;95430.25;7394466;19;20471;-56
2024/03/28 06:32:24;;;;;;;0.82;0.82;;;;;;;27.98;28.40;95441.06;7392594;19;20018;-56
2024/03/28 06:34:55;;;;;;;1.00;0.73;;;;;;;28.13;28.41;95445.47;7394364;19;20069;-56
2024/03/28 06:37:22;;;;;;;0.60;0.60;;;;;;;28.46;27.93;95456.44;7393622;19;20037;-56
2024/03/28 06:39:49;;;;;;;0.30;0.30;;;;;;;28.45;28.08;95462.88;7394087;19;20384;-56
2024/03/28 06:42:16;;;;;;;0.32;0.32;;;;;;;28.37;28.03;95469.25;7395516;19;20015;-56
2024/03/28 06:44:47;;;;;;;0.30;0.30;;;;;;;28.25;28.14;95474.88;7393731;19;20011;-56
2024/03/28 06:47:14;;;;;;;0.47;0.47;;;;;;;28.06;28.10;95489.72;7394067;19;20032;-56
2024/03/28 06:49:40;;;;;;;0.30;0.30;;;;;;;28.24;28.17;95490.59;7395797;19;20014;-57
2024/03/28 06:52:07;;;;;;;1.27;0.20;;;;;;;27.17;28.97;95502.28;7393689;19;20518;-57
2024/03/28 06:54:34;;;;;;;0.32;0.32;;;;;;;27.15;29.01;95505.13;7393149;19;20364;-57
2024/03/28 06:57:00;;;;;;;0.20;0.20;;;;;;;26.89;28.86;95520.50;7390883;19;20045;-57
2024/03/28 06:59:26;;;;;;;0.43;0.43;;;;;;;26.73;28.99;95523.13;7393094;19;20657;-57
2024/03/28 07:01:53;;;;;;;0.50;0.50;;;;;;;26.50;29.64;95527.03;7393578;19;20086;-56
2024/03/28 07:04:19;;;;;;;2.15;1.13;;;;;;;26.32;29.75;95541.00;7393101;19;20007;-57
2024/03/28 07:06:45;;;;;;;1.95;1.25;;;;;;;25.52;30.46;95535.28;7391425;19;20010;-57
2024/03/28 07:09:11;;;;;;;2.65;0.65;;;;;;;25.26;30.36;95543.25;7392613;19;20074;-57
2024/03/28 07:11:38;;;;;;;0.57;0.40;;;;;;;25.32;30.62;95551.94;7397454;19;20030;-57
2024/03/28 07:14:05;;;;;;;4.20;1.10;;;;;;;25.27;30.54;95544.72;7391859;19;20038;-56
2024/03/28 07:16:32;;;;;;;10.23;2.50;;;;;;;25.34;30.24;95549.13;7393761;19;20480;-56
2024/03/28 07:18:59;;;;;;;1.77;1.25;;;;;;;24.88;30.38;95555.97;7392997;19;20011;-57
2024/03/28 07:21:25;;;;;;;2.80;0.88;;;;;;;24.67;30.56;95564.00;7396644;19;20011;-57
2024/03/28 07:23:51;;;;;;;2.05;0.47;;;;;;;24.65;31.01;95566.06;7393366;19;20021;-57
2024/03/28 07:26:18;;;;;;;1.00;1.00;;;;;;;24.30;31.12;95578.03;7389918;19;20018;-57
2024/03/28 07:28:44;;;;;;;1.10;0.63;;;;;;;24.14;31.14;95577.63;7392655;19;20470;-56
2024/03/28 07:31:10;;;;;;;5.57;1.40;;;;;;;24.65;30.54;95583.13;7392321;19;20010;-57
2024/03/28 07:33:36;;;;;;;10.20;1.90;;;;;;;24.81;30.48;95583.56;7404050;19;20090;-57
2024/03/28 07:36:02;;;;;;;4.07;0.93;;;;;;;25.88;29.36;95597.25;7400523;19;20019;-57
2024/03/28 07:38:28;;;;;;;6.20;2.05;;;;;;;25.77;29.48;95609.84;7400332;19;20015;-56
2024/03/28 07:40:55;;;;;;;2.08;1.30;;;;;;;25.03;30.39;95606.84;7399451;19;20014;-56
2024/03/28 07:43:22;;;;;;;0.82;0.80;;;;;;;25.68;29.59;95608.22;7403551;19;20020;-56
2024/03/28 07:45:48;;;;;;;4.80;1.63;;;;;;;25.75;29.72;95606.97;7400780;19;20006;-56
2024/03/28 07:48:14;;;;;;;0.50;0.43;;;;;;;26.04;29.35;95608.94;7399578;19;20006;-57
2024/03/28 07:50:40;;;;;;;0.47;0.47;;;;;;;25.84;29.45;95602.84;7403985;19;20014;-57
2024/03/28 07:53:06;;;;;;;1.13;1.13;;;;;;;25.92;29.63;95597.31;7399452;19;20010;-57
2024/03/28 07:55:33;;;;;;;0.55;0.55;;;;;;;25.81;29.67;95601.38;7402773;19;20027;-56
2024/03/28 07:57:59;;;;;;;0.65;0.65;;;;;;;25.80;29.54;95608.47;7398882;19;20045;-56
2024/03/28 08:00:27;;;;;;;1.10;1.05;;;;;;;25.71;29.43;95612.59;7401187;19;20018;-56
2024/03/28 08:02:53;;;;;;;0.30;0.30;;;;;;;25.63;29.53;95620.94;7399736;19;20131;-56
2024/03/28 08:05:20;;;;;;;0.30;0.30;;;;;;;24.37;30.77;95631.53;7395904;19;20015;-56
2024/03/28 08:07:46;;;;;;;0.45;0.45;;;;;;;24.34;30.95;95620.78;7403315;19;20019;-56
2024/03/28 08:10:12;;;;;;;0.25;0.22;;;;;;;23.79;31.25;95622.16;7398407;19;20047;-56
2024/03/28 08:12:39;;;;;;;0.45;0.45;;;;;;;24.13;31.17;95633.03;7400306;19;20007;-56
2024/03/28 08:15:05;;;;;;;0.30;0.30;;;;;;;23.93;31.49;95630.34;7398232;19;20046;-57
2024/03/28 08:17:33;;;;;;;0.40;0.40;;;;;;;24.78;30.60;95628.31;7398134;19;20017;-57
2024/03/28 08:20:00;;;;;;;0.50;0.50;;;;;;;24.05;31.59;95637.09;7402160;19;20078;-56
2024/03/28 08:22:27;;;;;;;2.95;0.77;;;;;;;24.20;31.12;95637.47;7396971;19;20010;-56
2024/03/28 08:24:53;;;;;;;1.52;0.82;;;;;;;25.06;30.65;95633.94;7394336;19;20019;-56
2024/03/28 08:27:19;;;;;;;7.90;1.00;;;;;;;24.89;30.98;95642.78;7396618;19;20013;-56
2024/03/28 08:29:48;;;;;;;3.50;1.27;;;;;;;24.49;31.43;95643.22;7397128;19;20015;-57
2024/03/28 08:32:14;;;;;;;0.20;0.20;;;;;;;24.41;31.60;95650.81;7395062;19;20018;-56
2024/03/28 08:34:41;;;;;;;0.17;0.17;;;;;;;25.76;30.14;95643.31;7394356;19;20453;-56
2024/03/28 08:37:07;;;;;;;0.30;0.30;;;;;;;26.33;29.71;95645.16;7395474;19;20011;-56
2024/03/28 08:39:33;;;;;;;0.30;0.30;;;;;;;26.57;29.29;95657.00;7395946;19;20035;-56
2024/03/28 08:42:01;;;;;;;0.30;0.30;;;;;;;26.63;29.49;95659.22;7395671;19;20022;-56
2024/03/28 08:44:27;;;;;;;3.20;0.43;;;;;;;26.91;29.25;95660.44;7395422;19;20015;-56
2024/03/28 08:46:53;;;;;;;0.20;0.20;;;;;;;26.94;29.30;95661.91;7396983;19;20360;-56
2024/03/28 08:49:19;;;;;;;1.20;0.40;;;;;;;27.20;28.89;95666.59;7398078;19;20018;-56
2024/03/28 08:51:46;;;;;;;2.20;1.05;;;;;;;27.38;28.79;95664.03;7397697;19;20011;-56
2024/03/28 08:54:12;;;;;;;9.27;0.47;;;;;;;26.96;29.17;95667.66;7397714;19;20050;-56
2024/03/28 08:56:39;;;;;;;0.98;0.40;;;;;;;26.48;29.69;95666.81;7396839;19;20102;-56
2024/03/28 08:59:06;;;;;;;1.48;0.63;;;;;;;26.31;29.69;95673.66;7396752;19;20080;-56
2024/03/28 09:01:32;;;;;;;0.28;0.28;;;;;;;26.21;29.43;95673.44;7397154;19;20019;-56
2024/03/28 09:03:58;;;;;;;6.28;1.02;;;;;;;26.17;29.43;95661.97;7398617;19;20083;-56
2024/03/28 09:06:24;;;;;;;0.43;0.25;;;;;;;26.04;29.71;95680.22;7395459;19;20015;-56
2024/03/28 09:08:50;;;;;;;2.05;0.47;;;;;;;26.33;29.63;95680.09;7395171;19;20022;-56
2024/03/28 09:11:16;;;;;;;0.20;0.20;;;;;;;26.91;29.52;95691.88;7396602;19;20021;-56
2024/03/28 09:13:43;;;;;;;0.32;0.32;;;;;;;27.07;29.76;95687.81;7400925;19;20125;-56
2024/03/28 09:16:09;;;;;;;0.52;0.52;;;;;;;27.25;29.23;95679.53;7397188;19;20014;-56
2024/03/28 09:18:35;;;;;;;1.77;0.50;;;;;;;27.26;29.45;95680.97;7396786;19;20759;-56
2024/03/28 09:21:08;;;;;;;8.02;1.05;;;;;;;27.91;28.73;95680.47;7396808;19;20010;-56
2024/03/28 09:23:34;;;;;;;4.65;1.77;;;;;;;28.45;28.90;95681.13;7396117;19;20062;-56
2024/03/28 09:26:01;;;;;;;0.75;0.65;;;;;;;28.17;28.65;95700.84;7395142;19;20412;-56
2024/03/28 09:28:28;;;;;;;1.30;1.13;;;;;;;27.86;28.03;95709.72;7398213;19;20038;-56
2024/03/28 09:30:54;;;;;;;7.72;1.65;;;;;;;27.44;28.18;95709.84;7394627;19;20014;-56
2024/03/28 09:33:20;;;;;;;8.95;1.17;;;;;;;27.34;28.28;95704.66;7396115;19;20014;-56
2024/03/28 09:35:46;;;;;;;0.90;0.90;;;;;;;27.44;28.79;95701.97;7396497;19;20367;-56
2024/03/28 09:38:12;;;;;;;1.75;0.98;;;;;;;27.28;28.31;95701.00;7395570;19;20025;-56
2024/03/28 09:40:54;;;;;;;1.02;0.93;;;;;;;27.46;28.41;95699.16;7397560;19;20010;-56
2024/03/28 09:43:20;;;;;;;1.08;1.08;;;;;;;27.73;28.96;95708.84;7399633;19;20010;-56
2024/03/28 09:45:46;;;;;;;1.48;0.68;;;;;;;27.53;28.56;95717.13;7394265;19;20042;-56
2024/03/28 09:48:15;;;;;;;1.05;0.63;;;;;;;27.68;28.16;95713.03;7395286;19;20475;-56
2024/03/28 09:50:42;;;;;;;0.40;0.30;;;;;;;27.63;28.02;95709.44;7399227;19;20019;-56
2024/03/28 09:53:10;;;;;;;4.65;1.75;;;;;;;27.66;28.12;95710.88;7397111;19;20036;-56
2024/03/28 09:55:39;;;;;;;1.75;0.65;;;;;;;29.21;26.98;95704.06;7392507;19;20459;-56
2024/03/28 09:58:09;;;;;;;1.13;0.57;;;;;;;28.37;27.26;95712.50;7393941;19;20010;-56
2024/03/28 10:00:38;;;;;;;10.63;2.15;;;;;;;28.86;27.37;95724.50;7393744;19;20014;-56
2024/03/28 10:03:50;;;;;;;3.80;1.70;;;;;;;29.70;27.16;95710.84;7395225;19;20010;-56
2024/03/28 10:06:16;;;;;;;0.60;0.45;;;;;;;30.07;26.27;95716.78;7389092;19;20007;-56
2024/03/28 10:08:43;;;;;;;6.78;1.13;;;;;;;30.13;26.13;95699.59;7394065;19;20021;-56
2024/03/28 10:11:09;;;;;;;0.22;0.20;;;;;;;30.23;25.78;95711.13;7394630;19;20027;-56
2024/03/28 10:13:36;;;;;;;3.80;0.65;;;;;;;30.21;25.81;95711.13;7399096;19;20022;-56
2024/03/28 10:16:04;;;;;;;0.43;0.43;;;;;;;30.04;25.28;95716.06;7396092;19;20355;-56
2024/03/28 10:18:31;;;;;;;4.25;0.90;;;;;;;30.05;25.67;95725.38;7395197;19;20022;-56
2024/03/28 10:20:57;;;;;;;1.35;0.85;;;;;;;30.05;25.67;95716.78;7393807;19;20033;-56
2024/03/28 10:23:24;;;;;;;0.40;0.40;;;;;;;29.97;25.52;95709.56;7394213;19;20034;-56
2024/03/28 10:25:51;;;;;;;0.30;0.30;;;;;;;30.23;25.27;95691.03;7393577;19;20566;-56
2024/03/28 10:28:28;;;;;;;0.15;0.15;;;;;;;30.59;25.05;95694.03;7395332;19;20006;-56
2024/03/28 10:30:59;;;;;;;0.30;0.30;;;;;;;30.46;25.29;95692.56;7393670;19;20022;-56
2024/03/28 10:33:25;;;;;;;0.10;0.10;;;;;;;30.35;25.14;95696.84;7394375;19;20010;-56
2024/03/28 10:36:02;;;;;;;3.05;1.17;;;;;;;30.30;24.82;95698.25;7394863;19;20033;-55
2024/03/28 10:38:30;;;;;;;0.10;0.10;;;;;;;30.20;25.26;95695.31;7396684;19;20026;-56
2024/03/28 10:40:59;;;;;;;0.30;0.30;;;;;;;30.35;24.70;95685.34;7394013;19;20020;-56
2024/03/28 10:43:26;;;;;;;0.35;0.32;;;;;;;30.60;25.30;95695.47;7398030;19;20007;-56
2024/03/28 10:45:59;;;;;;;0.40;0.40;;;;;;;30.65;24.80;95699.78;7392014;19;20027;-56
2024/03/28 10:48:26;;;;;;;0.10;0.10;;;;;;;30.98;25.08;95704.16;7395079;19;20010;-56
2024/03/28 10:51:14;;;;;;;0.20;0.20;;;;;;;31.12;24.78;95707.03;7396156;19;20020;-56
2024/03/28 10:54:02;;;;;;;0.20;0.20;;;;;;;30.98;24.51;95695.56;7393603;19;20102;-56
2024/03/28 10:56:32;;;;;;;1.00;0.35;;;;;;;31.09;25.05;95691.25;7393823;19;20014;-56
2024/03/28 10:59:03;;;;;;;0.28;0.20;;;;;;;31.00;25.13;95695.56;7396437;19;20359;-56
2024/03/28 11:01:30;;;;;;;0.52;0.52;;;;;;;31.28;24.91;95700.56;7394022;19;20018;-56
2024/03/28 11:03:58;;;;;;;0.45;0.40;;;;;;;31.71;24.29;95701.25;7393288;19;20748;-56
2024/03/28 11:06:25;;;;;;;0.22;0.22;;;;;;;31.89;24.14;95689.72;7391141;19;20070;-56
2024/03/28 11:08:58;;;;;;;1.75;0.38;;;;;;;32.09;24.45;95704.06;7396470;19;20011;-56
2024/03/28 11:11:26;;;;;;;1.58;0.70;;;;;;;32.56;23.64;95702.44;7391995;19;20463;-55
2024/03/28 11:13:52;;;;;;;3.55;0.57;;;;;;;32.75;23.75;95700.16;7392718;19;20015;-55
2024/03/28 11:16:23;;;;;;;0.47;0.32;;;;;;;32.86;23.81;95701.53;7392884;19;20014;-56
2024/03/28 11:18:50;;;;;;;0.95;0.65;;;;;;;32.85;23.69;95717.41;7395949;19;20021;-55
2024/03/28 11:21:27;;;;;;;0.10;0.10;;;;;;;32.90;23.86;95713.75;7391229;19;20042;-56
2024/03/28 11:23:53;;;;;;;4.13;0.65;;;;;;;33.38;23.53;95700.41;7392695;19;20104;-55
2024/03/28 11:26:21;;;;;;;0.10;0.10;;;;;;;33.19;23.57;95707.78;7391543;19;20014;-56
2024/03/28 11:28:48;;;;;;;1.80;0.63;;;;;;;32.38;23.19;95702.50;7395945;19;20085;-58
2024/03/28 11:31:24;;;;;;;0.15;0.10;;;;;;;32.43;23.53;95703.91;7392251;19;20415;-57
2024/03/28 11:34:02;;;;;;;0.90;0.28;;;;;;;32.43;23.74;95703.91;7392205;19;20019;-57
2024/03/28 11:36:31;;;;;;;0.45;0.28;;;;;;;32.32;23.38;95693.88;7393206;19;20021;-58
2024/03/28 11:38:58;;;;;;;0.30;0.20;;;;;;;31.67;23.44;95695.50;7394949;19;20022;-58
2024/03/28 11:41:25;;;;;;;0.20;0.20;;;;;;;31.55;24.20;95698.44;7391798;19;20019;-58